Terminal Aerodrome Forecast
Issued by NWS Omaha/Valley, NE

Home | Current Version | Previous Version | Text Only | Print | Product List | Glossary On
Versions: 1 2 3 4 5 6 7 8 9 10 11 12 13 14 15 16 17 18 19 20
000
FTUS43 KOAX 232323
TAFLNK
TAF
KLNK 232323Z 2400/2424 12017G23KT P6SM OVC100
      TEMPO 2400/2404 3SM TSRA BKN030CB
     FM240400 18013KT P6SM OVC050
      TEMPO 2404/2408 3SM TSRA BKN030CB
     FM240800 16013KT P6SM -TSRA OVC030CB
     FM240900 23013KT P6SM -TSRA OVC030CB
     FM241000 32013KT P6SM -SHRA OVC030
     FM241100 33013KT P6SM OVC025
     FM241400 34018G25KT P6SM OVC050=

USA.gov is the U.S. government's official web portal to all federal, state and local government web resources and services.